UHBB

Ignatyevo

Blagoveschensk, Russian Federation
TAF UHBB 151058Z 1512/1612 36003MPS 9999 NSC TEMPO 1516/1522 2100 BR SCT007 BECMG 1601/1603 12003MPS SCT030 FM161000 18003MPS CAVOK
Issued Valid From Valid To
Aug-15 @ 10:58 UTC
(2 hours ago)
Aug-15 @ 12:00 UTC
(39 minutes ago)
Aug-16 @ 12:00 UTC
(in 23 hours)
Aug-15 @ 12:00 to Aug-16 @ 01:00
TAF UHBB 151058Z 1512/1612 36003MPS 9999 NSC
Wind Visibility Clouds
360° at 6 knots 10,000+ meters
  • No significant clouds
Temporary Aug-15 @ 16:00 to Aug-15 @ 22:00
TEMPO 1516/1522 2100 BR SCT007
Visibility Clouds Conditions
2,092 meters
  • Scattered at 700' AGL
  • Mist
Becoming Aug-16 @ 01:00 to Aug-16 @ 10:00
BECMG 1601/1603 12003MPS SCT030
Wind Visibility Clouds
120° at 6 knots 10,000+ meters
  • Scattered at 3,000' AGL
From Aug-16 @ 10:00 to Aug-16 @ 12:00
FM161000 18003MPS CAVOK
Wind Visibility Clouds Conditions
180° at 6 knots 10,000+ meters
  • No significant clouds
TAF UHBB 151058Z 1512/1612 36003MPS 9999 NSC TEMPO 1516/1522 2100 BR SCT007 BECMG 1601/1603 12003MPS SCT030 FM161000 18003MPS CAVOK
Issued Aug-15 @ 10:58 UTC
(2 hours ago)
Valid From Aug-15 @ 12:00 UTC
(39 minutes ago)
Valid To Aug-16 @ 12:00 UTC
(in 23 hours)
Aug-15 @ 12:00 - Aug-16 @ 01:00
Wind Visibility
360° at 6 knots 10,000+ meters
Clouds
  • No significant clouds
Temporary Aug-15 @ 16:00 - Aug-15 @ 22:00
Clouds
  • Scattered at 700' AGL
Conditions
  • Mist
Becoming Aug-16 @ 01:00 - Aug-16 @ 10:00
Wind Visibility
120° at 6 knots 10,000+ meters
Clouds
  • Scattered at 3,000' AGL
From Aug-16 @ 10:00 - Aug-16 @ 12:00
Wind Visibility
180° at 6 knots 10,000+ meters
Clouds
  • No significant clouds
Conditions